Corpus Christi, Texas
Current Conditions -  °F | °C
As of 7:51 PM on Friday 24 Oct 2014 (Local Time) from KCRP Reporting Station
Clear Clear  
Wind Chill: 71°   Ceiling: Unl
Heat Index: 71°   Visibility: 10mi
Dew Point: 64°   Wind: 8mph
Humidity: 78%   Direction: 140°SE
Pressure: 30.1"   Gusts: NA
Location:  27.8°N, 97.4°W
Report Text: KCRP 250051Z 14007KT 10SM CLR 22/18 A3010 RMK AO2 SLP191 T02170178
Loading
Personal Weather Stations






























Interactive Weather Map
Tropical Storm Tracking
New forecast layout! Learn more

10-Day Weather Forecast

Advertisements
Track Severe Weather on mobile